createdAt,value
2017-07-27T00:02:06.551Z,14.80
2017-07-27T00:07:09.732Z,15.00
2017-07-27T00:12:12.908Z,15.30
2017-07-27T00:17:16.081Z,15.40
2017-07-27T00:22:19.267Z,15.60
2017-07-27T00:27:23.206Z,15.50
2017-07-27T00:32:26.415Z,15.60
2017-07-27T00:37:29.599Z,15.60
2017-07-27T00:42:33.546Z,15.90
2017-07-27T00:47:36.727Z,15.90
2017-07-27T00:52:40.665Z,16.10
2017-07-27T00:57:43.850Z,16.10
2017-07-27T01:02:47.037Z,16.10
2017-07-27T01:07:50.231Z,16.20
2017-07-27T01:12:53.402Z,16.30
2017-07-27T01:17:56.583Z,16.30
2017-07-27T01:23:00.535Z,16.30
2017-07-27T01:28:03.704Z,16.30
2017-07-27T01:33:06.872Z,16.30
2017-07-27T01:38:10.097Z,16.20
2017-07-27T01:43:13.277Z,16.20
2017-07-27T01:48:16.421Z,16.20
2017-07-27T01:53:19.589Z,16.20
2017-07-27T01:58:22.790Z,16.20
2017-07-27T02:03:25.983Z,16.10
2017-07-27T02:08:29.173Z,16.10
2017-07-27T02:13:33.097Z,16.10
2017-07-27T02:18:37.057Z,16.10
2017-07-27T02:23:40.246Z,16.10
2017-07-27T02:28:43.430Z,16.00
2017-07-27T02:33:47.376Z,15.90
2017-07-27T02:38:50.582Z,15.90
2017-07-27T02:43:54.524Z,16.20
2017-07-27T02:48:57.721Z,16.10
2017-07-27T02:54:00.944Z,16.30
2017-07-27T02:59:04.146Z,16.30
2017-07-27T03:04:07.318Z,16.30
2017-07-27T03:09:11.272Z,16.30
2017-07-27T03:14:14.436Z,16.20
2017-07-27T03:19:18.483Z,16.20
2017-07-27T03:24:22.410Z,16.30
2017-07-27T03:29:25.614Z,16.30
2017-07-27T03:34:29.537Z,16.30
2017-07-27T03:39:32.745Z,16.20
2017-07-27T03:44:35.930Z,16.30
2017-07-27T03:49:39.875Z,16.30
2017-07-27T03:54:43.084Z,16.30
2017-07-27T03:59:47.109Z,16.50
2017-07-27T04:04:50.295Z,16.40
2017-07-27T04:09:53.489Z,16.40
2017-07-27T04:14:56.673Z,16.30
2017-07-27T04:19:59.848Z,16.40
2017-07-27T04:25:03.061Z,16.30
2017-07-27T04:30:06.250Z,16.20
2017-07-27T04:35:09.472Z,16.20
2017-07-27T04:40:12.769Z,16.20
2017-07-27T04:45:16.753Z,16.30
2017-07-27T04:50:20.269Z,16.20
2017-07-27T04:55:23.437Z,16.30
2017-07-27T05:00:26.626Z,16.30
2017-07-27T05:05:29.819Z,16.40
2017-07-27T05:10:33.799Z,16.50
2017-07-27T05:15:36.973Z,16.50
2017-07-27T05:20:40.164Z,16.50
2017-07-27T05:25:43.413Z,16.60
2017-07-27T05:30:46.748Z,16.60
2017-07-27T05:35:49.972Z,16.80
2017-07-27T05:40:53.939Z,16.70
2017-07-27T05:45:57.147Z,16.70
2017-07-27T05:51:00.343Z,16.80
2017-07-27T05:56:03.538Z,16.90
2017-07-27T06:01:06.697Z,16.90
2017-07-27T06:06:09.874Z,16.70
2017-07-27T06:11:13.071Z,16.90
2017-07-27T06:16:16.254Z,17.20
2017-07-27T06:21:20.239Z,17.10
2017-07-27T06:26:23.441Z,17.10
2017-07-27T06:31:26.623Z,16.90
2017-07-27T06:36:29.821Z,17.00
2017-07-27T06:41:33.017Z,17.20
2017-07-27T06:46:36.188Z,17.30
2017-07-27T06:51:39.374Z,17.20
2017-07-27T06:56:42.575Z,17.30
2017-07-27T07:01:45.772Z,17.50
2017-07-27T07:06:48.977Z,17.90
2017-07-27T07:11:52.147Z,18.00
2017-07-27T07:16:55.386Z,17.80
2017-07-27T07:21:58.683Z,18.00
2017-07-27T07:27:02.060Z,18.00
2017-07-27T07:32:06.047Z,18.20
2017-07-27T07:37:09.230Z,18.20
2017-07-27T07:42:12.386Z,18.20
2017-07-27T07:47:15.578Z,18.30
2017-07-27T07:52:18.767Z,18.70
2017-07-27T07:57:21.968Z,19.00
2017-07-27T08:02:25.186Z,18.90
2017-07-27T08:07:28.379Z,18.90
2017-07-27T08:12:31.558Z,19.20
2017-07-27T08:17:35.481Z,19.80
2017-07-27T08:22:38.661Z,19.80
2017-07-27T08:27:41.917Z,20.30
2017-07-27T08:32:45.173Z,20.60
2017-07-27T08:37:48.378Z,20.20
2017-07-27T08:42:51.557Z,20.80
2017-07-27T08:47:54.825Z,20.90
2017-07-27T08:52:58.854Z,21.00
2017-07-27T08:58:02.002Z,21.00
2017-07-27T09:03:05.193Z,21.30
2017-07-27T09:08:08.377Z,20.60
2017-07-27T09:13:11.557Z,20.30
2017-07-27T09:18:15.527Z,20.80
2017-07-27T09:23:18.705Z,20.80
2017-07-27T09:28:22.643Z,21.30
2017-07-27T09:33:25.828Z,21.30
2017-07-27T09:38:29.758Z,21.00
2017-07-27T09:43:32.937Z,21.00
2017-07-27T09:48:36.141Z,20.70
2017-07-27T09:53:39.325Z,21.00
2017-07-27T09:58:42.532Z,21.20
2017-07-27T10:03:45.914Z,21.00
2017-07-27T10:08:49.103Z,20.90
2017-07-27T10:13:52.346Z,21.00
2017-07-27T10:18:55.506Z,21.10
2017-07-27T10:23:59.462Z,21.70
2017-07-27T10:29:02.648Z,21.70
2017-07-27T10:34:06.680Z,22.20
2017-07-27T10:39:10.614Z,22.70
2017-07-27T10:44:13.781Z,22.70
2017-07-27T10:49:16.964Z,23.10
2017-07-27T10:54:20.122Z,23.50
2017-07-27T10:59:23.353Z,23.80
2017-07-27T11:04:26.547Z,23.80
2017-07-27T11:09:29.737Z,23.70
2017-07-27T11:14:33.697Z,24.00
2017-07-27T11:19:36.869Z,24.00
2017-07-27T11:24:40.829Z,23.60
2017-07-27T11:29:44.020Z,23.60
2017-07-27T11:34:47.210Z,24.30
2017-07-27T11:39:51.137Z,24.70
2017-07-27T11:44:54.316Z,24.70
2017-07-27T11:49:57.496Z,24.80
2017-07-27T11:55:00.679Z,25.00
2017-07-27T12:00:03.869Z,24.40
2017-07-27T12:05:07.038Z,24.50
2017-07-27T12:10:10.222Z,24.40
2017-07-27T12:15:13.420Z,24.50
2017-07-27T12:20:16.602Z,24.30
2017-07-27T12:25:19.775Z,24.60
2017-07-27T12:30:22.975Z,24.80
2017-07-27T12:35:26.162Z,24.20
2017-07-27T12:40:29.401Z,23.70
2017-07-27T12:45:33.341Z,22.60
2017-07-27T12:50:36.581Z,22.50
2017-07-27T12:55:39.772Z,22.90
2017-07-27T13:00:42.968Z,23.40
2017-07-27T13:05:46.155Z,23.80
2017-07-27T13:10:50.109Z,24.60
2017-07-27T13:15:53.301Z,24.60
2017-07-27T13:20:57.275Z,25.10
2017-07-27T13:26:00.443Z,25.10
2017-07-27T13:31:03.613Z,24.80
2017-07-27T13:36:07.551Z,24.50
2017-07-27T13:41:11.510Z,25.40
2017-07-27T13:46:14.709Z,25.30
2017-07-27T13:51:17.996Z,26.00
2017-07-27T13:56:21.964Z,24.50
2017-07-27T14:01:25.164Z,24.50
2017-07-27T14:06:28.346Z,23.10
2017-07-27T14:11:31.538Z,22.60
2017-07-27T14:16:34.737Z,22.30
2017-07-27T14:21:38.773Z,23.60
2017-07-27T14:26:42.732Z,24.40
2017-07-27T14:31:45.953Z,24.30
2017-07-27T14:36:49.126Z,24.50
2017-07-27T14:41:52.302Z,24.80
2017-07-27T14:46:56.270Z,24.60
2017-07-27T14:51:59.437Z,24.60
2017-07-27T14:57:03.406Z,24.60
2017-07-27T15:02:06.597Z,24.60
2017-07-27T15:07:09.796Z,24.40
2017-07-27T15:12:13.001Z,24.10
2017-07-27T15:17:16.194Z,24.20
2017-07-27T15:22:20.157Z,24.80
2017-07-27T15:27:23.369Z,24.80
2017-07-27T15:32:26.550Z,24.60
2017-07-27T15:37:29.726Z,24.20
2017-07-27T15:42:33.678Z,23.30
2017-07-27T15:47:36.845Z,23.20
2017-07-27T15:52:40.061Z,23.00
2017-07-27T15:57:43.253Z,22.90
2017-07-27T16:02:46.429Z,22.90
2017-07-27T16:07:49.618Z,22.90
2017-07-27T16:12:52.825Z,23.00
2017-07-27T16:17:56.071Z,22.80
2017-07-27T16:22:59.232Z,22.80
2017-07-27T16:28:02.450Z,22.50
2017-07-27T16:33:05.639Z,22.50
2017-07-27T16:38:08.804Z,22.40
2017-07-27T16:43:11.999Z,21.40
2017-07-27T16:48:15.179Z,21.10
2017-07-27T16:53:18.361Z,20.80
2017-07-27T16:58:21.574Z,20.80
2017-07-27T17:03:24.786Z,21.10
2017-07-27T17:08:28.000Z,21.60
2017-07-27T17:13:31.208Z,21.80
2017-07-27T17:18:35.270Z,21.80
2017-07-27T17:23:38.475Z,21.60
2017-07-27T17:28:41.789Z,21.70
2017-07-27T17:33:44.976Z,21.70
2017-07-27T17:38:48.220Z,21.80
2017-07-27T17:43:52.174Z,21.90
2017-07-27T17:48:55.369Z,21.90
2017-07-27T17:53:59.345Z,21.80
2017-07-27T17:59:02.554Z,21.80
2017-07-27T18:04:05.762Z,21.50
2017-07-27T18:09:08.967Z,21.50
2017-07-27T18:14:12.203Z,21.40
2017-07-27T18:19:15.511Z,21.40
2017-07-27T18:24:18.697Z,21.30
2017-07-27T18:29:21.902Z,21.20
2017-07-27T18:34:25.067Z,20.90
2017-07-27T18:39:28.234Z,20.80
2017-07-27T18:44:31.405Z,20.60
2017-07-27T18:49:34.662Z,20.30
2017-07-27T18:54:37.843Z,20.20
2017-07-27T18:59:41.039Z,20.30
2017-07-27T19:04:44.241Z,20.30
2017-07-27T19:09:47.416Z,20.10
2017-07-27T19:14:50.646Z,20.00
2017-07-27T19:19:53.828Z,19.90
2017-07-27T19:24:57.048Z,19.80
2017-07-27T19:30:00.403Z,19.90
2017-07-27T19:35:03.610Z,19.80
2017-07-27T19:40:06.789Z,19.80
2017-07-27T19:45:09.992Z,19.80
2017-07-27T19:50:13.192Z,19.70
2017-07-27T19:55:16.369Z,19.70
2017-07-27T20:00:20.330Z,19.60
2017-07-27T20:05:23.509Z,19.60
2017-07-27T20:10:26.725Z,19.50
2017-07-27T20:15:29.926Z,19.60
2017-07-27T20:20:33.122Z,19.60
2017-07-27T20:25:37.095Z,19.60
2017-07-27T20:30:40.258Z,19.60
2017-07-27T20:35:44.251Z,19.50
2017-07-27T20:40:47.399Z,19.50
2017-07-27T20:45:50.578Z,19.30
2017-07-27T20:50:54.545Z,19.40
2017-07-27T20:55:57.750Z,19.40
2017-07-27T21:01:01.033Z,19.10
2017-07-27T21:06:04.986Z,19.10
2017-07-27T21:11:08.203Z,19.10
2017-07-27T21:16:11.373Z,19.00
2017-07-27T21:21:14.684Z,18.90
2017-07-27T21:26:18.611Z,18.70
2017-07-27T21:31:21.821Z,18.70
2017-07-27T21:36:25.014Z,18.60
2017-07-27T21:41:29.014Z,18.50
2017-07-27T21:46:32.184Z,18.50
2017-07-27T21:51:35.516Z,18.40
2017-07-27T21:56:38.742Z,18.30
2017-07-27T22:01:41.945Z,18.20
2017-07-27T22:06:45.189Z,18.20
2017-07-27T22:11:48.413Z,18.10
2017-07-27T22:16:51.619Z,18.10
2017-07-27T22:21:54.868Z,18.10
2017-07-27T22:26:58.061Z,17.90
2017-07-27T22:32:01.249Z,17.80
2017-07-27T22:37:04.443Z,17.70
2017-07-27T22:42:07.733Z,17.70
2017-07-27T22:47:10.923Z,17.70
2017-07-27T22:52:14.886Z,17.60
2017-07-27T22:57:18.061Z,17.60
2017-07-27T23:02:22.022Z,17.50
2017-07-27T23:07:25.237Z,17.40
2017-07-27T23:12:28.434Z,17.40
2017-07-27T23:17:31.659Z,17.20
2017-07-27T23:22:34.976Z,17.10
2017-07-27T23:27:38.181Z,17.10
2017-07-27T23:32:41.412Z,17.00
2017-07-27T23:37:44.578Z,17.00
2017-07-27T23:42:47.765Z,16.90
2017-07-27T23:47:50.929Z,16.90
2017-07-27T23:52:54.097Z,16.90
2017-07-27T23:57:57.274Z,16.90
